createdAt,value
2018-01-12T00:01:39.188Z,57.45
2018-01-12T00:04:06.689Z,46.92
2018-01-12T00:06:34.944Z,50.58
2018-01-12T00:09:02.458Z,51.35
2018-01-12T00:11:29.949Z,47.50
2018-01-12T00:13:57.472Z,50.25
2018-01-12T00:16:25.010Z,50.10
2018-01-12T00:18:52.513Z,53.13
2018-01-12T00:21:20.010Z,46.22
2018-01-12T00:23:48.299Z,52.53
2018-01-12T00:26:15.794Z,51.22
2018-01-12T00:28:43.310Z,45.85
2018-01-12T00:31:11.588Z,52.67
2018-01-12T00:33:39.129Z,58.45
2018-01-12T00:36:06.723Z,54.88
2018-01-12T00:38:34.234Z,53.78
2018-01-12T00:41:01.730Z,57.17
2018-01-12T00:43:29.260Z,48.65
2018-01-12T00:45:56.759Z,52.40
2018-01-12T00:48:24.279Z,48.63
2018-01-12T00:50:52.552Z,52.75
2018-01-12T00:53:20.844Z,66.22
2018-01-12T00:55:49.111Z,51.28
2018-01-12T00:58:17.394Z,59.67
2018-01-12T01:00:45.645Z,50.17
2018-01-12T01:03:13.149Z,50.53
2018-01-12T01:05:40.642Z,56.17
2018-01-12T01:08:08.144Z,42.95
2018-01-12T01:10:36.498Z,49.22
2018-01-12T01:13:04.112Z,46.67
2018-01-12T01:15:31.635Z,47.08
2018-01-12T01:17:59.903Z,43.60
2018-01-12T01:20:28.187Z,51.97
2018-01-12T01:22:56.481Z,47.75
2018-01-12T01:25:24.042Z,48.45
2018-01-12T01:27:51.542Z,58.78
2018-01-12T01:30:19.065Z,61.47
2018-01-12T01:32:46.573Z,59.13
2018-01-12T01:35:14.091Z,56.20
2018-01-12T01:37:41.587Z,56.00
2018-01-12T01:40:09.098Z,55.12
2018-01-12T01:42:36.605Z,54.67
2018-01-12T01:45:04.904Z,53.40
2018-01-12T01:47:33.156Z,48.33
2018-01-12T01:50:01.437Z,54.42
2018-01-12T01:52:28.931Z,67.15
2018-01-12T01:54:56.422Z,68.85
2018-01-12T01:57:23.950Z,74.68
2018-01-12T01:59:51.440Z,80.35
2018-01-12T02:02:18.959Z,81.12
2018-01-12T02:04:47.213Z,81.95
2018-01-12T02:07:14.730Z,72.12
2018-01-12T02:09:42.226Z,66.07
2018-01-12T02:12:09.722Z,60.45
2018-01-12T02:14:37.240Z,67.30
2018-01-12T02:17:04.725Z,65.60
2018-01-12T02:19:33.001Z,71.32
2018-01-12T02:22:01.272Z,88.10
2018-01-12T02:24:29.577Z,70.78
2018-01-12T02:26:57.078Z,69.82
2018-01-12T02:29:24.580Z,61.33
2018-01-12T02:31:52.112Z,59.58
2018-01-12T02:34:20.365Z,62.00
2018-01-12T02:36:47.863Z,56.88
2018-01-12T02:39:15.382Z,64.43
2018-01-12T02:41:42.878Z,57.25
2018-01-12T02:44:10.387Z,60.88
2018-01-12T02:46:37.901Z,80.70
2018-01-12T02:49:05.403Z,80.15
2018-01-12T02:51:32.903Z,78.28
2018-01-12T02:54:01.181Z,67.25
2018-01-12T02:56:29.436Z,95.65
2018-01-12T02:58:56.948Z,100.90
2018-01-12T03:01:24.460Z,100.03
2018-01-12T03:03:51.965Z,103.47
2018-01-12T03:06:19.494Z,99.82
2018-01-12T03:08:46.995Z,94.10
2018-01-12T03:11:14.516Z,92.15
2018-01-12T03:13:42.006Z,90.05
2018-01-12T03:16:09.544Z,75.30
2018-01-12T03:18:37.089Z,69.50
2018-01-12T03:21:05.050Z,85.47
2018-01-12T03:23:33.325Z,103.65
2018-01-12T03:26:01.600Z,96.90
2018-01-12T03:28:29.896Z,119.78
2018-01-12T03:30:57.399Z,123.72
2018-01-12T03:33:24.925Z,128.87
2018-01-12T03:35:52.421Z,118.45
2018-01-12T03:38:19.930Z,114.95
2018-01-12T03:40:48.335Z,126.32
2018-01-12T03:43:15.845Z,124.70
2018-01-12T03:45:44.129Z,111.62
2018-01-12T03:48:11.644Z,122.65
2018-01-12T03:50:39.150Z,125.32
2018-01-12T03:53:06.666Z,132.12
2018-01-12T03:55:34.172Z,141.15
2018-01-12T03:58:01.703Z,149.15
2018-01-12T04:00:29.964Z,136.18
2018-01-12T04:02:57.457Z,138.07
2018-01-12T04:05:24.965Z,137.62
2018-01-12T04:07:52.483Z,149.75
2018-01-12T04:10:19.987Z,150.50
2018-01-12T04:12:47.477Z,177.60
2018-01-12T04:15:15.768Z,156.77
2018-01-12T04:17:43.288Z,149.82
2018-01-12T04:20:10.796Z,139.05
2018-01-12T04:22:38.307Z,118.37
2018-01-12T04:25:05.816Z,136.88
2018-01-12T04:27:33.356Z,131.57
2018-01-12T04:30:00.859Z,173.25
2018-01-12T04:32:28.362Z,144.37
2018-01-12T04:34:56.660Z,167.15
2018-01-12T04:37:24.162Z,168.98
2018-01-12T04:39:51.666Z,159.12
2018-01-12T04:42:19.189Z,185.25
2018-01-12T04:44:46.691Z,183.07
2018-01-12T04:47:14.203Z,208.15
2018-01-12T04:49:41.731Z,182.88
2018-01-12T04:52:09.225Z,165.37
2018-01-12T04:54:36.733Z,186.60
2018-01-12T04:57:04.246Z,191.32
2018-01-12T04:59:31.738Z,203.32
2018-01-12T05:01:59.275Z,183.40
2018-01-12T05:04:27.543Z,182.02
2018-01-12T05:06:55.052Z,157.73
2018-01-12T05:09:22.583Z,134.95
2018-01-12T05:11:50.092Z,139.73
2018-01-12T05:14:17.609Z,170.48
2018-01-12T05:16:45.137Z,145.05
2018-01-12T05:19:13.393Z,165.98
2018-01-12T05:21:41.820Z,158.95
2018-01-12T05:24:09.343Z,154.02
2018-01-12T05:26:36.837Z,153.87
2018-01-12T05:29:04.356Z,166.10
2018-01-12T05:31:31.854Z,178.38
2018-01-12T05:33:59.370Z,186.05
2018-01-12T05:36:26.879Z,193.37
2018-01-12T05:38:54.369Z,167.30
2018-01-12T05:41:21.891Z,177.57
2018-01-12T05:43:49.384Z,138.35
2018-01-12T05:46:16.949Z,147.30
2018-01-12T05:48:44.446Z,124.85
2018-01-12T05:51:12.701Z,136.80
2018-01-12T05:53:40.232Z,135.52
2018-01-12T05:56:07.740Z,136.48
2018-01-12T05:58:35.276Z,133.23
2018-01-12T06:01:15.414Z,119.03
2018-01-12T06:03:54.785Z,130.48
2018-01-12T06:06:23.083Z,133.73
2018-01-12T06:08:50.583Z,138.90
2018-01-12T06:11:18.074Z,146.82
2018-01-12T06:13:46.345Z,146.37
2018-01-12T06:16:14.619Z,127.38
2018-01-12T06:18:42.932Z,162.18
2018-01-12T06:21:10.444Z,141.05
2018-01-12T06:23:37.942Z,173.45
2018-01-12T06:26:05.454Z,156.50
2018-01-12T06:28:32.948Z,151.73
2018-01-12T06:31:00.484Z,161.52
2018-01-12T06:33:28.777Z,152.68
2018-01-12T06:35:57.035Z,136.05
2018-01-12T06:38:25.324Z,189.27
2018-01-12T06:40:53.592Z,171.45
2018-01-12T06:43:21.878Z,217.62
2018-01-12T06:45:50.156Z,156.98
2018-01-12T06:48:17.649Z,118.03
2018-01-12T06:50:45.167Z,130.65
2018-01-12T06:53:13.444Z,197.23
2018-01-12T06:55:41.749Z,182.62
2018-01-12T06:58:09.268Z,129.60
2018-01-12T07:00:37.539Z,172.05
2018-01-12T07:03:05.053Z,163.57
2018-01-12T07:05:32.545Z,137.00
2018-01-12T07:08:00.054Z,216.77
2018-01-12T07:10:27.588Z,143.10
2018-01-12T07:12:55.868Z,166.20
2018-01-12T07:15:23.396Z,143.65
2018-01-12T07:17:50.894Z,175.93
2018-01-12T07:20:30.378Z,156.02
2018-01-12T07:23:09.861Z,138.88
2018-01-12T07:25:38.161Z,133.85
2018-01-12T07:28:05.672Z,139.40
2018-01-12T07:30:33.179Z,153.95
2018-01-12T07:33:00.683Z,152.20
2018-01-12T07:35:29.809Z,159.52
2018-01-12T07:37:57.320Z,135.88
2018-01-12T07:40:24.809Z,144.37
2018-01-12T07:42:53.107Z,169.32
2018-01-12T07:45:20.610Z,143.18
2018-01-12T07:47:48.127Z,150.15
2018-01-12T07:50:15.629Z,153.95
2018-01-12T07:52:48.767Z,160.48
2018-01-12T07:55:17.035Z,128.57
2018-01-12T07:57:45.339Z,155.02
2018-01-12T08:00:12.852Z,137.52
2018-01-12T08:02:46.160Z,139.62
2018-01-12T08:05:14.417Z,160.27
2018-01-12T08:07:42.699Z,171.55
2018-01-12T08:10:10.225Z,163.52
2018-01-12T08:12:37.713Z,173.32
2018-01-12T08:15:05.230Z,168.07
2018-01-12T08:17:32.726Z,160.00
2018-01-12T08:20:00.237Z,189.13
2018-01-12T08:22:27.743Z,156.18
2018-01-12T08:24:55.276Z,159.35
2018-01-12T08:27:22.774Z,174.62
2018-01-12T08:29:51.067Z,160.93
2018-01-12T08:32:18.594Z,191.90
2018-01-12T08:34:46.176Z,183.40
2018-01-12T08:37:14.446Z,209.75
2018-01-12T08:39:42.726Z,181.63
2018-01-12T08:42:11.003Z,181.90
2018-01-12T08:44:39.340Z,187.02
2018-01-12T08:47:06.872Z,167.90
2018-01-12T08:49:34.365Z,151.32
2018-01-12T08:52:01.897Z,168.73
2018-01-12T08:54:29.412Z,133.68
2018-01-12T08:56:57.695Z,166.18
2018-01-12T08:59:25.192Z,160.85
2018-01-12T09:01:52.685Z,173.95
2018-01-12T09:04:20.233Z,174.23
2018-01-12T09:06:47.725Z,170.80
2018-01-12T09:09:15.985Z,175.45
2018-01-12T09:11:44.271Z,179.15
2018-01-12T09:14:24.373Z,197.55
2018-01-12T09:16:51.898Z,193.20
2018-01-12T09:19:27.368Z,184.45
2018-01-12T09:21:56.722Z,176.95
2018-01-12T09:24:24.981Z,163.30
2018-01-12T09:26:54.004Z,159.57
2018-01-12T09:29:21.517Z,188.35
2018-01-12T09:31:50.843Z,164.57
2018-01-12T09:34:30.281Z,157.40
2018-01-12T09:36:58.568Z,174.75
2018-01-12T09:39:38.633Z,149.18
2018-01-12T09:42:06.549Z,160.25
2018-01-12T09:44:34.180Z,165.30
2018-01-12T09:47:13.564Z,171.65
2018-01-12T09:49:50.081Z,164.10
2018-01-12T09:52:17.584Z,164.25
2018-01-12T09:54:45.099Z,161.02
2018-01-12T09:57:12.634Z,168.32
2018-01-12T09:59:43.457Z,153.48
2018-01-12T10:02:11.752Z,172.37
2018-01-12T10:04:40.045Z,164.25
2018-01-12T10:07:16.357Z,163.85
2018-01-12T10:09:48.887Z,158.07
2018-01-12T10:12:16.434Z,167.37
2018-01-12T10:14:43.947Z,173.95
2018-01-12T10:17:11.453Z,180.45
2018-01-12T10:22:41.842Z,180.57
2018-01-12T10:25:09.349Z,167.07
2018-01-12T10:27:37.625Z,186.27
2018-01-12T10:30:17.895Z,178.55
2018-01-12T10:32:45.397Z,182.70
2018-01-12T10:35:18.705Z,168.95
2018-01-12T10:37:46.197Z,165.45
2018-01-12T10:40:25.640Z,171.75
2018-01-12T10:42:53.148Z,171.57
2018-01-12T10:45:20.632Z,157.45
2018-01-12T10:47:51.663Z,162.65
2018-01-12T10:50:22.958Z,156.48
2018-01-12T10:52:50.452Z,138.15
2018-01-12T10:55:17.982Z,141.82
2018-01-12T10:57:45.473Z,117.57
2018-01-12T11:00:24.980Z,143.23
2018-01-12T11:02:52.487Z,131.30
2018-01-12T11:05:20.787Z,134.93
2018-01-12T11:07:48.305Z,142.48
2018-01-12T11:10:15.802Z,161.85
2018-01-12T11:12:43.319Z,164.55
2018-01-12T11:15:10.827Z,153.48
2018-01-12T11:17:38.347Z,191.88
2018-01-12T11:20:05.856Z,163.05
2018-01-12T11:22:33.348Z,159.35
2018-01-12T11:25:00.865Z,174.12
2018-01-12T11:27:28.364Z,148.65
2018-01-12T11:29:55.857Z,140.85
2018-01-12T11:32:24.176Z,145.87
2018-01-12T11:34:51.672Z,145.57
2018-01-12T11:37:19.941Z,151.27
2018-01-12T11:39:47.447Z,160.60
2018-01-12T11:42:14.975Z,150.07
2018-01-12T11:44:43.235Z,230.82
2018-01-12T11:47:10.830Z,183.40
2018-01-12T11:49:38.349Z,156.57
2018-01-12T11:52:05.855Z,175.70
2018-01-12T11:54:33.367Z,169.43
2018-01-12T11:57:00.900Z,164.35
2018-01-12T11:59:28.417Z,145.38
2018-01-12T12:01:55.937Z,137.37
2018-01-12T12:04:23.433Z,176.20
2018-01-12T12:06:50.943Z,162.30
2018-01-12T12:09:18.453Z,177.57
2018-01-12T12:11:45.954Z,194.77
2018-01-12T12:14:13.579Z,203.30
2018-01-12T12:16:41.079Z,159.23
2018-01-12T12:19:08.587Z,203.50
2018-01-12T12:21:36.115Z,165.45
2018-01-12T12:24:03.638Z,184.90
2018-01-12T12:26:31.261Z,193.13
2018-01-12T12:28:59.536Z,175.75
2018-01-12T12:31:27.800Z,177.38
2018-01-12T12:33:56.101Z,206.65
2018-01-12T12:36:23.615Z,185.50
2018-01-12T12:38:51.105Z,184.10
2018-01-12T12:41:19.407Z,191.77
2018-01-12T12:43:46.915Z,175.82
2018-01-12T12:46:14.405Z,174.18
2018-01-12T12:48:41.950Z,173.57
2018-01-12T12:51:10.228Z,176.98
2018-01-12T12:53:38.489Z,188.52
2018-01-12T12:56:06.770Z,184.23
2018-01-12T12:58:35.025Z,186.00
2018-01-12T13:01:02.538Z,176.95
2018-01-12T13:03:30.054Z,180.37
2018-01-12T13:05:57.563Z,204.57
2018-01-12T13:08:25.067Z,199.23
2018-01-12T13:10:52.676Z,174.77
2018-01-12T13:13:20.188Z,157.15
2018-01-12T13:15:47.692Z,151.90
2018-01-12T13:18:15.210Z,154.05
2018-01-12T13:20:42.714Z,149.85
2018-01-12T13:23:10.235Z,162.12
2018-01-12T13:25:38.497Z,175.82
2018-01-12T13:28:06.027Z,169.87
2018-01-12T13:30:33.521Z,153.55
2018-01-12T13:33:01.055Z,164.23
2018-01-12T13:35:28.550Z,157.25
2018-01-12T13:37:56.822Z,187.05
2018-01-12T13:40:25.111Z,148.95
2018-01-12T13:42:53.390Z,171.95
2018-01-12T13:45:20.900Z,181.55
2018-01-12T13:47:48.408Z,176.23
2018-01-12T13:50:15.916Z,190.27
2018-01-12T13:52:43.433Z,184.23
2018-01-12T13:55:10.994Z,170.25
2018-01-12T13:57:38.526Z,182.40
2018-01-12T14:00:06.804Z,194.30
2018-01-12T14:02:35.061Z,168.37
2018-01-12T14:05:02.604Z,202.73
2018-01-12T14:07:30.120Z,159.60
2018-01-12T14:09:57.613Z,168.25
2018-01-12T14:12:25.131Z,173.10
2018-01-12T14:14:52.636Z,156.37
2018-01-12T14:17:20.901Z,143.68
2018-01-12T14:19:48.440Z,137.55
2018-01-12T14:22:15.956Z,155.37
2018-01-12T14:24:43.448Z,146.60
2018-01-12T14:27:10.969Z,162.23
2018-01-12T14:29:38.470Z,140.37
2018-01-12T14:32:05.989Z,137.93
2018-01-12T14:34:33.511Z,137.98
2018-01-12T14:37:01.024Z,140.43
2018-01-12T14:39:29.299Z,114.78
2018-01-12T14:41:57.612Z,121.82
2018-01-12T14:44:25.132Z,125.50
2018-01-12T14:46:53.415Z,115.70
2018-01-12T14:49:21.719Z,106.15
2018-01-12T14:51:49.231Z,121.18
2018-01-12T14:54:16.752Z,142.68
2018-01-12T14:56:44.282Z,150.82
2018-01-12T14:59:11.795Z,150.50
2018-01-12T15:01:39.308Z,172.85
2018-01-12T15:04:06.858Z,145.55
2018-01-12T15:06:35.137Z,162.90
2018-01-12T15:09:02.633Z,156.20
2018-01-12T15:11:30.153Z,155.23
2018-01-12T15:13:57.646Z,179.90
2018-01-12T15:16:25.166Z,181.50
2018-01-12T15:18:52.660Z,162.02
2018-01-12T15:21:20.172Z,172.00
2018-01-12T15:23:48.468Z,136.05
2018-01-12T15:26:15.966Z,136.95
2018-01-12T15:28:43.479Z,164.57
2018-01-12T15:31:11.003Z,156.68
2018-01-12T15:33:38.498Z,174.20
2018-01-12T15:36:06.040Z,191.10
2018-01-12T15:38:34.316Z,167.20
2018-01-12T15:41:02.591Z,157.98
2018-01-12T15:43:30.874Z,174.20
2018-01-12T15:45:59.128Z,180.87
2018-01-12T15:48:26.645Z,172.50
2018-01-12T15:50:54.150Z,195.00
2018-01-12T15:53:21.665Z,178.23
2018-01-12T15:55:49.206Z,177.95
2018-01-12T15:58:16.723Z,174.55
2018-01-12T16:00:44.222Z,167.62
2018-01-12T16:03:11.755Z,182.98
2018-01-12T16:05:40.032Z,187.15
2018-01-12T16:08:08.311Z,192.77
2018-01-12T16:10:36.601Z,187.05
2018-01-12T16:13:04.103Z,216.75
2018-01-12T16:15:31.596Z,228.93
2018-01-12T16:17:59.895Z,203.57
2018-01-12T16:20:27.407Z,207.27
2018-01-12T16:22:54.914Z,210.90
2018-01-12T16:25:22.413Z,191.35
2018-01-12T16:27:49.932Z,184.65
2018-01-12T16:30:17.452Z,196.98
2018-01-12T16:32:44.950Z,206.52
2018-01-12T16:35:12.474Z,215.27
2018-01-12T16:37:39.986Z,210.73
2018-01-12T16:40:07.515Z,200.10
2018-01-12T16:42:35.769Z,199.50
2018-01-12T16:45:03.279Z,183.27
2018-01-12T16:47:30.811Z,200.52
2018-01-12T16:49:58.318Z,204.18
2018-01-12T16:52:25.877Z,203.10
2018-01-12T16:54:53.428Z,222.18
2018-01-12T16:57:20.944Z,223.35
2018-01-12T16:59:48.479Z,224.93
2018-01-12T17:02:15.974Z,220.18
2018-01-12T17:04:43.469Z,209.93
2018-01-12T17:07:10.992Z,208.77
2018-01-12T17:09:38.512Z,213.60
2018-01-12T17:12:06.797Z,221.90
2018-01-12T17:14:34.303Z,229.50
2018-01-12T17:17:01.792Z,217.05
2018-01-12T17:19:29.307Z,223.75
2018-01-12T17:21:56.813Z,233.18
2018-01-12T17:24:24.329Z,220.50
2018-01-12T17:26:51.826Z,204.40
2018-01-12T17:29:19.339Z,235.27
2018-01-12T17:31:46.856Z,214.63
2018-01-12T17:34:14.383Z,209.27
2018-01-12T17:36:41.896Z,233.57
2018-01-12T17:39:09.430Z,201.05
2018-01-12T17:41:36.948Z,170.75
2018-01-12T17:44:04.460Z,173.90
2018-01-12T17:46:32.756Z,154.77
2018-01-12T17:49:00.262Z,148.15
2018-01-12T17:51:27.805Z,161.37
2018-01-12T17:53:55.329Z,140.57
2018-01-12T17:56:22.834Z,120.00
2018-01-12T17:58:50.349Z,124.05
2018-01-12T18:01:17.873Z,132.55
2018-01-12T18:03:45.388Z,133.85
2018-01-12T18:06:12.902Z,134.32
2018-01-12T18:08:41.208Z,125.70
2018-01-12T18:11:08.746Z,124.90
2018-01-12T18:13:37.006Z,121.37
2018-01-12T18:16:05.297Z,120.47
2018-01-12T18:18:33.557Z,122.37
2018-01-12T18:21:01.089Z,125.50
2018-01-12T18:23:28.608Z,125.75
2018-01-12T18:25:56.119Z,126.12
2018-01-12T18:28:23.636Z,128.05
2018-01-12T18:30:51.185Z,109.87
2018-01-12T18:33:18.716Z,130.60
2018-01-12T18:35:46.993Z,133.93
2018-01-12T18:38:15.285Z,126.12
2018-01-12T18:40:42.796Z,138.45
2018-01-12T18:43:10.324Z,131.12
2018-01-12T18:45:37.859Z,128.15
2018-01-12T18:48:05.381Z,146.40
2018-01-12T18:50:32.896Z,142.45
2018-01-12T18:53:00.421Z,138.40
2018-01-12T18:55:28.716Z,165.43
2018-01-12T18:57:56.229Z,124.32
2018-01-12T19:00:23.772Z,129.50
2018-01-12T19:02:51.292Z,124.68
2018-01-12T19:05:18.810Z,126.70
2018-01-12T19:07:46.348Z,124.93
2018-01-12T19:10:13.871Z,117.60
2018-01-12T19:12:41.374Z,101.53
2018-01-12T19:15:08.899Z,111.00
2018-01-12T19:17:36.416Z,125.00
2018-01-12T19:20:04.696Z,113.03
2018-01-12T19:22:33.001Z,132.68
2018-01-12T19:25:00.506Z,111.47
2018-01-12T19:27:28.005Z,127.38
2018-01-12T19:29:55.533Z,128.98
2018-01-12T19:32:23.038Z,137.30
2018-01-12T19:34:50.540Z,133.40
2018-01-12T19:37:18.071Z,140.00
2018-01-12T19:39:46.352Z,116.50
2018-01-12T19:42:13.853Z,138.98
2018-01-12T19:44:42.172Z,123.70
2018-01-12T19:47:09.697Z,131.23
2018-01-12T19:49:37.961Z,148.95
2018-01-12T19:52:06.260Z,154.98
2018-01-12T19:54:33.754Z,174.15
2018-01-12T19:57:01.253Z,152.62
2018-01-12T19:59:28.765Z,152.87
2018-01-12T20:01:56.285Z,133.50
2018-01-12T20:04:24.695Z,153.05
2018-01-12T20:06:52.278Z,141.50
2018-01-12T20:09:19.777Z,139.32
2018-01-12T20:11:48.063Z,140.10
2018-01-12T20:14:15.560Z,121.10
2018-01-12T20:16:43.080Z,146.48
2018-01-12T20:19:10.578Z,134.98
2018-01-12T20:21:38.100Z,139.70
2018-01-12T20:24:05.601Z,122.82
2018-01-12T20:26:33.109Z,158.10
2018-01-12T20:29:01.406Z,143.45
2018-01-12T20:31:28.926Z,149.07
2018-01-12T20:33:57.197Z,113.10
2018-01-12T20:36:24.726Z,121.68
2018-01-12T20:38:52.247Z,142.57
2018-01-12T20:41:19.770Z,163.30
2018-01-12T20:43:47.294Z,155.70
2018-01-12T20:46:14.785Z,173.82
2018-01-12T20:48:42.299Z,142.00
2018-01-12T20:51:09.822Z,135.18
2018-01-12T20:53:38.108Z,135.05
2018-01-12T20:56:06.367Z,119.78
2018-01-12T20:58:34.659Z,123.40
2018-01-12T21:01:02.157Z,104.28
2018-01-12T21:03:29.684Z,111.82
2018-01-12T21:05:57.193Z,127.43
2018-01-12T21:08:24.726Z,101.50
2018-01-12T21:10:52.220Z,114.88
2018-01-12T21:13:19.737Z,121.13
2018-01-12T21:15:49.085Z,105.80
2018-01-12T21:18:16.581Z,100.28
2018-01-12T21:20:44.099Z,97.07
2018-01-12T21:23:11.616Z,93.03
2018-01-12T21:25:39.132Z,89.13
2018-01-12T21:28:07.409Z,113.25
2018-01-12T21:30:35.716Z,123.62
2018-01-12T21:33:03.228Z,126.95
2018-01-12T21:35:30.729Z,132.10
2018-01-12T21:37:58.261Z,126.85
2018-01-12T21:40:26.522Z,136.57
2018-01-12T21:42:54.034Z,123.32
2018-01-12T21:45:21.529Z,141.27
2018-01-12T21:47:49.068Z,139.30
2018-01-12T21:50:16.565Z,155.95
2018-01-12T21:52:44.092Z,142.65
2018-01-12T21:55:11.602Z,144.77
2018-01-12T21:57:39.135Z,135.90
2018-01-12T22:00:06.659Z,131.30
2018-01-12T22:02:34.186Z,142.52
2018-01-12T22:05:01.704Z,144.25
2018-01-12T22:07:29.188Z,139.75
2018-01-12T22:09:57.469Z,136.62
2018-01-12T22:12:25.733Z,148.55
2018-01-12T22:14:54.012Z,138.52
2018-01-12T22:17:22.289Z,198.55
2018-01-12T22:19:50.545Z,196.23
2018-01-12T22:22:18.080Z,220.05
2018-01-12T22:24:46.342Z,168.07
2018-01-12T22:27:13.832Z,154.02
2018-01-12T22:29:41.375Z,250.07
2018-01-12T22:32:08.889Z,174.98
2018-01-12T22:34:36.412Z,173.20
2018-01-12T22:37:03.929Z,158.63
2018-01-12T22:39:31.434Z,195.00
2018-01-12T22:41:58.968Z,191.57
2018-01-12T22:44:26.485Z,132.48
2018-01-12T22:46:54.042Z,173.70
2018-01-12T22:49:21.582Z,130.37
2018-01-12T22:51:49.838Z,120.72
2018-01-12T22:54:17.352Z,118.80
2018-01-12T22:56:44.879Z,115.95
2018-01-12T22:59:13.176Z,114.20
2018-01-12T23:01:40.696Z,130.07
2018-01-12T23:04:08.982Z,115.10
2018-01-12T23:06:37.280Z,123.50
2018-01-12T23:09:04.820Z,120.95
2018-01-12T23:11:33.081Z,118.32
2018-01-12T23:14:00.578Z,115.03
2018-01-12T23:16:28.102Z,98.62
2018-01-12T23:18:56.357Z,99.50
2018-01-12T23:21:23.876Z,92.47
2018-01-12T23:23:51.397Z,104.80
2018-01-12T23:26:19.652Z,92.12
2018-01-12T23:28:47.167Z,94.62
2018-01-12T23:31:14.676Z,97.85
2018-01-12T23:33:42.174Z,93.25
2018-01-12T23:36:09.689Z,92.85
2018-01-12T23:38:37.203Z,83.72
2018-01-12T23:41:04.702Z,90.12
2018-01-12T23:43:32.231Z,95.75
2018-01-12T23:45:59.716Z,98.05
2018-01-12T23:48:27.228Z,98.07
2018-01-12T23:50:54.748Z,105.18
2018-01-12T23:53:23.087Z,93.72
2018-01-12T23:55:50.586Z,89.05
2018-01-12T23:58:18.094Z,86.22
